x

Ilm3 - 27 Miles Se Of Wrightsville Beach, Nc (41037) Weather Station

6:08 - Sun 4th Dec 2016 All times are EST. -5 hours from GMT.

  • Wind
    16mph, 20mph gusts
  • Sea Temp 68°f
  • Air Temp 58°f
  • Sea Pressure 1021mb
  • Ilm3 - 27 Miles Se Of Wrightsville Beach, Nc
  • Ilm3 - 27 Miles Se Of Wrightsville Beach, Nc

More Historic Weather Station data

Upgrade to MSW Pro to gain access to the past 30 days of data for over 8000 Wavebouys and Weather Stations around the globe.

Join Pro

Comparision Forecast

View Surf forecast
   
dim. 12/04 6:08 16 20 mph 1021mb 68f 58f
5:08 16 25 mph 1021.4mb 68f 57f
4:08 16 25 mph 1021.5mb 68f 56f
3:08 18 25 mph 1021.9mb 68f 55f
2:08 16 22 mph 1021.8mb 68f 56f
1:08 13 20 mph 1022.4mb 68f 56f
12:08 13 20 mph 1023mb 68f 56f
11:08 13 20 mph 1023.6mb 68f 56f
10:08 11 20 mph 1024.5mb 68f 56f
9:08 13 22 mph 1024.5mb 68f 56f
8:08 13 20 mph 1023.9mb 69f 55f
7:08 11 20 mph 1023.9mb 69f 55f
6:08 13 22 mph 1023.5mb 69f 55f
5:08 13 22 mph 1023mb 69f 55f
4:08 13 20 mph 1022.7mb 68f 55f
3:08 13 20 mph 1022.9mb 68f 55f
2:08 11 18 mph 1023.2mb 69f 55f
1:08 11 16 mph 1023.7mb 69f 55f
12:08 9 16 mph 1024.3mb 69f 54f
sam. 12/03 11:08 9 16 mph 1025mb 69f 55f
10:08 9 18 mph 1024.4mb 69f 54f
9:08 9 16 mph 1024.2mb 69f 54f
8:08 11 18 mph 1023.4mb 69f 54f
7:08 11 16 mph 1023.7mb 69f 54f
6:08 11 18 mph 1023.5mb 69f 53f
5:08 9 16 mph 1023.1mb 69f 53f
4:08 11 16 mph 1023.3mb 69f 52f
3:08 11 18 mph 1023mb 69f 51f
2:08 11 18 mph 1022.9mb 69f 50f
1:08 13 22 mph 1022.9mb 69f 50f
12:08 16 27 mph 1023.6mb 69f 50f
11:08 16 25 mph 1024.6mb 69f 49f
10:08 18 27 mph 1024.8mb 69f 49f
9:08 18 27 mph 1024.1mb 69f 49f
8:08 22 31 mph 1023.4mb 69f 50f
7:08 25 34 mph 1022.9mb 69f 51f
6:08 25 36 mph 1022mb 69f 52f
5:08 25 31 mph 1021.9mb 69f 53f
4:08 22 31 mph 1021.4mb 68f 54f
2:08 20 29 mph 1021.1mb 68f 59f
1:08 18 25 mph 1020.3mb 69f 58f
12:08 18 27 mph 1020.7mb 69f 58f
ven. 12/02 11:08 22 29 mph 1021.1mb 69f 59f
10:08 18 27 mph 1021.1mb 69f 58f
9:08 18 27 mph 1020.8mb 69f 58f
8:08 16 22 mph 1020.5mb 69f 58f
7:08 16 22 mph 1019.9mb 69f 58f
6:08 16 22 mph 1019.3mb 67f 59f
5:08 13 22 mph 1019.2mb 66f 58f
4:08 13 20 mph 1018.8mb 66f 58f
3:08 11 18 mph 1018.9mb 66f 57f
2:08 11 18 mph 1018.7mb 66f 56f
1:08 9 16 mph 1018.9mb 68f 55f
12:08 13 18 mph 1019.4mb 69f 55f
11:08 13 22 mph 1019.9mb 69f 55f
10:08 13 22 mph 1019.9mb 69f 55f
9:08 16 25 mph 1019.2mb 69f 54f
8:08 18 25 mph 1018.7mb 69f 54f
7:08 18 27 mph 1018mb 69f 54f
6:08 18 27 mph 1017.1mb 69f 55f
5:08 20 29 mph 1016.5mb 67f 56f
4:08 22 29 mph 1015.8mb 67f 57f
3:08 18 27 mph 1015.5mb 67f 58f
2:08 18 25 mph 1014.9mb 66f 61f
1:08 18 27 mph 1014.8mb 65f 61f
12:08 18 27 mph 1014.5mb 66f 62f
jeu. 12/01 11:08 16 22 mph 1014.3mb 68f 62f
10:08 18 25 mph 1014mb 68f 63f
9:08 18 27 mph 1013.3mb 67f 64f
8:08 18 25 mph 1012.8mb 67f 65f
7:08 16 22 mph 1012.4mb 67f 64f
6:08 18 25 mph 1011.7mb 66f 65f
5:08 18 25 mph 1010.8mb 66f 65f
4:08 18 27 mph 1010.3mb 65f 65f
3:08 18 25 mph 1010.2mb 65f 65f
2:08 18 25 mph 1010mb 65f 64f
12:08 16 22 mph 1010.8mb 66f 65f
11:08 16 22 mph 1011.6mb 65f 65f
10:08 18 25 mph 1011.7mb 65f 65f
9:08 16 22 mph 1011.1mb 65f 65f
8:08 18 27 mph 1010.3mb 65f 66f
7:08 18 25 mph 1009.6mb 65f 66f
6:08 20 27 mph 1009.1mb 65f 67f
5:08 20 27 mph 1008.3mb 65f 67f
4:08 25 34 mph 1008.1mb 65f 69f
3:08 25 34 mph 1008.6mb 65f 71f
2:08 20 27 mph 1008.5mb 65f 71f
1:08 20 29 mph 1008.4mb 65f 71f